Ji_gui — V3WJ4 — position and weather

sailwx.info

Track history (hours):
 
Tides and Currents Weather Stations Pressure Air Temp Water Temp Dewpoint Dewpoint Depression Visibility Wind Speed Wind Dir Waves Ship Positions

Ji_gui

Last reported at 2017-Dec-11 16:58 UTC. Time now 2017-Dec-12 14:13 UTC.
Position N 35°02' E 136°51'.

Length 100 m; draft 6.1 m.

Type: Cargo ship. MMSI: 312889000.

Date/timePositionNaut miles runAvg speedWind from/ knotsBaromVisibWave heightAir tempDewpointWater temp
2017-Dec-11 16:58N 35°02' E 136°51'0 0.0
2017-Dec-11 16:28N 35°02' E 136°51'0 0.0
2017-Dec-11 15:58N 35°02' E 136°51'0 0.0
2017-Dec-11 15:28N 35°02' E 136°51'0 0.0
2017-Dec-11 14:58N 35°02' E 136°51'0 0.0
2017-Dec-11 14:28N 35°02' E 136°51'0 0.0
2017-Dec-11 13:58N 35°02' E 136°51'0 0.0
2017-Dec-11 13:28N 35°02' E 136°51'0 0.0
2017-Dec-11 12:58N 35°02' E 136°51'0 0.0
2017-Dec-11 12:28N 35°02' E 136°51'0 0.0
2017-Dec-11 11:58N 35°02' E 136°51'0 0.0
2017-Dec-11 11:28N 35°02' E 136°51'0 0.0
2017-Dec-11 10:58N 35°02' E 136°51'0 0.0
2017-Dec-11 10:28N 35°02' E 136°51'0 0.0
2017-Dec-11 09:58N 35°02' E 136°51'0 0.0
2017-Dec-11 09:28N 35°02' E 136°51'0 0.0
2017-Dec-11 08:58N 35°02' E 136°51'0 0.0
2017-Dec-11 08:28N 35°02' E 136°51'0 0.0
2017-Dec-11 07:58N 35°02' E 136°51'0 0.0
2017-Dec-11 07:28N 35°02' E 136°51'0 0.0
2017-Dec-11 06:58N 35°02' E 136°51'0 0.0
2017-Dec-11 06:28N 35°02' E 136°51'0 0.0
2017-Dec-11 05:58N 35°02' E 136°51'0 0.0
2017-Dec-11 05:28N 35°02' E 136°51'0 0.0
2017-Dec-11 05:00N 35°02' E 136°51'0 0.0
2017-Dec-11 04:31N 35°02' E 136°51'0 0.8
2017-Dec-11 04:00N 35°02' E 136°51'3 5.9
2017-Dec-11 03:30N 34°60' E 136°49'3 5.5
2017-Dec-11 02:59N 34°58' E 136°46'0 0.1
2017-Dec-11 02:29N 34°58' E 136°46'0 0.1
2017-Dec-11 01:59N 34°58' E 136°46'0 0.0
2017-Dec-11 01:29N 34°58' E 136°46'0 0.0
2017-Dec-11 00:59N 34°58' E 136°46'0 0.0
2017-Dec-11 00:29N 34°58' E 136°46'0 0.0
2017-Dec-10 23:59N 34°58' E 136°46'0 0.0
2017-Dec-10 23:29N 34°58' E 136°46'0 0.1
2017-Dec-10 22:59N 34°58' E 136°46'0 0.1
2017-Dec-10 22:29N 34°58' E 136°46'0 0.0
2017-Dec-10 22:00N 34°58' E 136°46'0 0.2
2017-Dec-10 21:30N 34°58' E 136°46'4 7.5
2017-Dec-10 21:00N 34°54' E 136°46'4 7.9
2017-Dec-10 20:30N 34°50' E 136°46'4 7.0
2017-Dec-10 20:00N 34°47' E 136°47'1 2.2
2017-Dec-10 19:30N 34°46' E 136°46'2 3.3
2017-Dec-10 19:00N 34°48' E 136°47'3 6.3
2017-Dec-10 18:30N 34°45' E 136°49'3 6.4
2017-Dec-10 18:00N 34°42' E 136°50'4 7.0
2017-Dec-10 17:30N 34°39' E 136°53'10 9.1
2017-Dec-10 16:27N 34°33' E 137°02'90 9.0
2017-Dec-10 06:25N 34°31' E 138°51'4 8.5
2017-Dec-10 05:59N 34°31' E 138°56'4 7.4
2017-Dec-10 05:29N 34°32' E 139°00'4 7.3
2017-Dec-10 04:59N 34°34' E 139°04'4 7.5
2017-Dec-10 04:31N 34°35' E 139°08'4 7.7
2017-Dec-10 03:57N 34°36' E 139°13'4 8.0
2017-Dec-10 03:23N 34°37' E 139°19'4 9.2
2017-Dec-10 02:58N 34°38' E 139°23'9 9.1
2017-Dec-10 02:00N 34°42' E 139°33'25 8.6
2017-Dec-09 23:06N 34°47' E 140°03'9 7.8
2017-Dec-09 21:58N 34°52' E 140°11'391 9.7
2017-Dec-08 05:33N 41°18' E 141°34'110.5
2017-Dec-08 05:25N 41°20' E 141°34'510.3
2017-Dec-08 04:57N 41°24' E 141°32'610.2
2017-Dec-08 04:24N 41°30' E 141°30'511.6
2017-Dec-08 04:00N 41°31' E 141°24'611.5
2017-Dec-08 03:30N 41°33' E 141°17'612.1
2017-Dec-08 03:00N 41°34' E 141°09'612.8
2017-Dec-08 02:30N 41°36' E 141°01'611.2
2017-Dec-08 02:00N 41°35' E 140°53'611.2
2017-Dec-08 01:30N 41°33' E 140°46'611.3
2017-Dec-08 01:00N 41°30' E 140°40'612.4
2017-Dec-08 00:30N 41°27' E 140°33'713.4
2017-Dec-08 00:00N 41°23' E 140°25'  
Track history (hours):
 
Tides and Currents Weather Stations Pressure Air Temp Water Temp Dewpoint Dewpoint Depression Visibility Wind Speed Wind Dir Waves Ship Positions

Ji_gui

Last reported at 2017-Dec-11 16:58 UTC. Time now 2017-Dec-12 14:13 UTC.
Position N 35°02' E 136°51'.

Length 100 m; draft 6.1 m.

Type: Cargo ship. MMSI: 312889000.

Date/timePositionNaut miles runAvg speedWind from/ knotsBaromVisibWave heightAir tempDewpointWater temp
2017-Dec-11 16:58N 35°02' E 136°51'0 0.0
2017-Dec-11 16:28N 35°02' E 136°51'0 0.0
2017-Dec-11 15:58N 35°02' E 136°51'0 0.0
2017-Dec-11 15:28N 35°02' E 136°51'0 0.0
2017-Dec-11 14:58N 35°02' E 136°51'0 0.0
2017-Dec-11 14:28N 35°02' E 136°51'0 0.0
2017-Dec-11 13:58N 35°02' E 136°51'0 0.0
2017-Dec-11 13:28N 35°02' E 136°51'0 0.0
2017-Dec-11 12:58N 35°02' E 136°51'0 0.0
2017-Dec-11 12:28N 35°02' E 136°51'0 0.0
2017-Dec-11 11:58N 35°02' E 136°51'0 0.0
2017-Dec-11 11:28N 35°02' E 136°51'0 0.0
2017-Dec-11 10:58N 35°02' E 136°51'0 0.0
2017-Dec-11 10:28N 35°02' E 136°51'0 0.0
2017-Dec-11 09:58N 35°02' E 136°51'0 0.0
2017-Dec-11 09:28N 35°02' E 136°51'0 0.0
2017-Dec-11 08:58N 35°02' E 136°51'0 0.0
2017-Dec-11 08:28N 35°02' E 136°51'0 0.0
2017-Dec-11 07:58N 35°02' E 136°51'0 0.0
2017-Dec-11 07:28N 35°02' E 136°51'0 0.0
2017-Dec-11 06:58N 35°02' E 136°51'0 0.0
2017-Dec-11 06:28N 35°02' E 136°51'0 0.0
2017-Dec-11 05:58N 35°02' E 136°51'0 0.0
2017-Dec-11 05:28N 35°02' E 136°51'0 0.0
2017-Dec-11 05:00N 35°02' E 136°51'0 0.0
2017-Dec-11 04:31N 35°02' E 136°51'0 0.8
2017-Dec-11 04:00N 35°02' E 136°51'3 5.9
2017-Dec-11 03:30N 34°60' E 136°49'3 5.5
2017-Dec-11 02:59N 34°58' E 136°46'0 0.1
2017-Dec-11 02:29N 34°58' E 136°46'0 0.1
2017-Dec-11 01:59N 34°58' E 136°46'0 0.0
2017-Dec-11 01:29N 34°58' E 136°46'0 0.0
2017-Dec-11 00:59N 34°58' E 136°46'0 0.0
2017-Dec-11 00:29N 34°58' E 136°46'0 0.0
2017-Dec-10 23:59N 34°58' E 136°46'0 0.0
2017-Dec-10 23:29N 34°58' E 136°46'0 0.1
2017-Dec-10 22:59N 34°58' E 136°46'0 0.1
2017-Dec-10 22:29N 34°58' E 136°46'0 0.0
2017-Dec-10 22:00N 34°58' E 136°46'0 0.2
2017-Dec-10 21:30N 34°58' E 136°46'4 7.5
2017-Dec-10 21:00N 34°54' E 136°46'4 7.9
2017-Dec-10 20:30N 34°50' E 136°46'4 7.0
2017-Dec-10 20:00N 34°47' E 136°47'1 2.2
2017-Dec-10 19:30N 34°46' E 136°46'2 3.3
2017-Dec-10 19:00N 34°48' E 136°47'3 6.3
2017-Dec-10 18:30N 34°45' E 136°49'3 6.4
2017-Dec-10 18:00N 34°42' E 136°50'4 7.0
2017-Dec-10 17:30N 34°39' E 136°53'10 9.1
2017-Dec-10 16:27N 34°33' E 137°02'90 9.0
2017-Dec-10 06:25N 34°31' E 138°51'4 8.5
2017-Dec-10 05:59N 34°31' E 138°56'4 7.4
2017-Dec-10 05:29N 34°32' E 139°00'4 7.3
2017-Dec-10 04:59N 34°34' E 139°04'4 7.5
2017-Dec-10 04:31N 34°35' E 139°08'4 7.7
2017-Dec-10 03:57N 34°36' E 139°13'4 8.0
2017-Dec-10 03:23N 34°37' E 139°19'4 9.2
2017-Dec-10 02:58N 34°38' E 139°23'9 9.1
2017-Dec-10 02:00N 34°42' E 139°33'25 8.6
2017-Dec-09 23:06N 34°47' E 140°03'9 7.8
2017-Dec-09 21:58N 34°52' E 140°11'391 9.7
2017-Dec-08 05:33N 41°18' E 141°34'110.5
2017-Dec-08 05:25N 41°20' E 141°34'510.3
2017-Dec-08 04:57N 41°24' E 141°32'610.2
2017-Dec-08 04:24N 41°30' E 141°30'511.6
2017-Dec-08 04:00N 41°31' E 141°24'611.5
2017-Dec-08 03:30N 41°33' E 141°17'612.1
2017-Dec-08 03:00N 41°34' E 141°09'612.8
2017-Dec-08 02:30N 41°36' E 141°01'611.2
2017-Dec-08 02:00N 41°35' E 140°53'611.2
2017-Dec-08 01:30N 41°33' E 140°46'611.3
2017-Dec-08 01:00N 41°30' E 140°40'612.4
2017-Dec-08 00:30N 41°27' E 140°33'713.4
2017-Dec-08 00:00N 41°23' E 140°25'  

Dump ship's entire track history